Time;durP1;ratioP1;P1;durP2;ratioP2;P2;SDS_P1;SDS_P2;PMS_P1;PMS_P2;Temp;Humidity;BMP_temperature;BMP_pressure;BME280_temperature;BME280_humidity;BME280_pressure;Samples;Min_cycle;Max_cycle;Signal;HPM_P1;HPM_P2
2021/07/06 00:00:23;;;;;;;12.80;8.33;;;;;;;19.26;100.00;100398.88;5072162;28;20409;-74
2021/07/06 00:02:50;;;;;;;12.60;7.70;;;;;;;19.36;100.00;100404.91;5063054;28;21041;-74
2021/07/06 00:05:17;;;;;;;10.60;7.27;;;;;;;19.39;100.00;100394.72;5070950;28;20411;-73
2021/07/06 00:07:42;;;;;;;12.30;7.83;;;;;;;19.41;100.00;100391.88;5071559;28;20464;-73
2021/07/06 00:10:10;;;;;;;13.57;7.80;;;;;;;19.45;100.00;100390.56;5067733;28;20438;-73
2021/07/06 00:12:36;;;;;;;14.50;8.10;;;;;;;19.47;100.00;100396.53;5069007;28;20929;-73
2021/07/06 00:15:04;;;;;;;10.37;7.30;;;;;;;19.54;100.00;100384.22;5070576;28;20824;-73
2021/07/06 00:17:30;;;;;;;15.73;8.57;;;;;;;19.56;100.00;100376.88;5071816;28;20419;-73
2021/07/06 00:19:55;;;;;;;15.73;8.17;;;;;;;19.63;100.00;100377.88;5070333;28;20463;-75
2021/07/06 00:22:21;;;;;;;11.07;6.87;;;;;;;19.66;100.00;100380.22;5068483;28;20187;-74
2021/07/06 00:24:47;;;;;;;13.37;8.47;;;;;;;19.74;100.00;100391.88;5069239;28;20165;-72
2021/07/06 00:27:13;;;;;;;17.13;6.23;;;;;;;19.74;100.00;100390.03;5064112;28;20547;-74
2021/07/06 00:29:38;;;;;;;8.80;6.27;;;;;;;19.79;100.00;100382.34;5062238;28;20465;-72
2021/07/06 00:32:05;;;;;;;12.00;7.10;;;;;;;19.83;100.00;100380.19;5066639;28;20466;-73
2021/07/06 00:34:31;;;;;;;14.23;7.23;;;;;;;19.91;100.00;100388.97;5062851;28;20204;-73
2021/07/06 00:36:57;;;;;;;12.73;7.70;;;;;;;19.87;100.00;100382.31;5071606;28;20970;-73
2021/07/06 00:39:22;;;;;;;13.53;7.47;;;;;;;19.88;100.00;100393.84;5071094;28;20421;-73
2021/07/06 00:41:48;;;;;;;11.50;8.33;;;;;;;19.93;100.00;100391.47;5068696;28;20175;-74
2021/07/06 00:44:16;;;;;;;10.43;7.47;;;;;;;19.98;100.00;100386.47;5068293;28;20188;-72
2021/07/06 00:46:42;;;;;;;11.77;6.63;;;;;;;19.94;100.00;100406.47;5071120;28;20168;-72
2021/07/06 00:49:08;;;;;;;9.67;5.80;;;;;;;19.99;100.00;100400.63;5063290;28;20418;-72
2021/07/06 00:51:34;;;;;;;11.23;6.60;;;;;;;20.01;100.00;100395.94;5058455;28;20458;-72
2021/07/06 00:54:00;;;;;;;10.63;7.17;;;;;;;19.94;100.00;100393.13;5053134;28;20410;-72
2021/07/06 00:56:26;;;;;;;8.63;6.00;;;;;;;19.98;100.00;100397.13;5049968;28;20404;-73
2021/07/06 00:58:51;;;;;;;15.67;6.20;;;;;;;20.00;100.00;100387.13;5049805;28;20411;-72
2021/07/06 01:01:17;;;;;;;15.93;6.80;;;;;;;20.03;100.00;100394.78;5054338;28;20203;-73
2021/07/06 01:03:43;;;;;;;11.30;7.00;;;;;;;20.02;100.00;100401.09;5049777;28;20928;-72
2021/07/06 01:06:11;;;;;;;10.70;6.60;;;;;;;20.01;100.00;100404.78;5052372;28;20195;-72
2021/07/06 01:08:37;;;;;;;10.73;6.30;;;;;;;20.05;100.00;100411.44;5050756;28;21203;-72
2021/07/06 01:11:04;;;;;;;13.93;6.93;;;;;;;20.05;100.00;100410.63;5049663;28;20952;-73
2021/07/06 01:13:30;;;;;;;12.07;6.73;;;;;;;20.00;100.00;100415.63;5053588;28;20181;-72
2021/07/06 01:15:56;;;;;;;10.80;7.00;;;;;;;19.98;100.00;100414.97;5052080;28;20430;-72
2021/07/06 01:18:21;;;;;;;15.43;7.40;;;;;;;19.96;100.00;100415.16;5050005;28;20465;-73
2021/07/06 01:20:53;;;;;;;10.97;6.73;;;;;;;19.96;100.00;100423.16;5050304;28;20415;-73
2021/07/06 01:23:21;;;;;;;12.00;7.23;;;;;;;19.83;100.00;100418.34;5049374;28;20222;-73
2021/07/06 01:25:51;;;;;;;18.03;7.20;;;;;;;19.85;100.00;100404.84;5049349;28;20399;-75
2021/07/06 01:28:17;;;;;;;13.80;9.03;;;;;;;19.80;100.00;100404.50;5052981;28;20423;-73
2021/07/06 01:30:42;;;;;;;11.37;7.20;;;;;;;19.78;100.00;100414.50;5050344;28;20856;-74
2021/07/06 01:33:08;;;;;;;13.10;7.90;;;;;;;19.78;100.00;100414.50;5049439;28;20169;-73
2021/07/06 01:35:34;;;;;;;12.23;8.10;;;;;;;19.75;100.00;100420.19;5052319;28;20255;-73
2021/07/06 01:38:03;;;;;;;11.23;7.30;;;;;;;19.71;100.00;100411.69;5049436;28;20169;-73
2021/07/06 01:40:30;;;;;;;12.73;7.40;;;;;;;19.68;100.00;100414.72;5049405;28;20450;-73
2021/07/06 01:42:57;;;;;;;8.87;6.83;;;;;;;19.67;100.00;100419.22;5047234;28;20427;-73
2021/07/06 01:45:28;;;;;;;11.33;7.50;;;;;;;19.56;100.00;100411.50;5053903;28;20419;-74
2021/07/06 01:47:56;;;;;;;9.00;6.60;;;;;;;19.53;100.00;100405.72;5053351;28;20415;-73
2021/07/06 01:50:49;;;;;;;9.17;6.80;;;;;;;19.51;100.00;100413.03;5049106;28;20434;-73
2021/07/06 01:53:18;;;;;;;12.33;8.70;;;;;;;19.48;100.00;100405.38;5045562;28;20493;-73
2021/07/06 01:55:46;;;;;;;12.97;8.30;;;;;;;19.47;100.00;100407.19;5049000;28;20458;-73
2021/07/06 01:58:14;;;;;;;10.27;6.73;;;;;;;19.46;100.00;100410.88;5048638;28;20461;-74
2021/07/06 02:00:45;;;;;;;9.47;6.67;;;;;;;19.44;100.00;100418.22;5049597;28;20779;-74
2021/07/06 02:03:11;;;;;;;11.83;7.40;;;;;;;19.44;100.00;100402.22;5049855;28;20513;-73
2021/07/06 02:05:43;;;;;;;11.70;8.27;;;;;;;19.38;100.00;100409.03;5053312;28;20528;-72
2021/07/06 02:08:11;;;;;;;11.10;7.40;;;;;;;19.33;100.00;100415.88;5048762;28;20408;-73
2021/07/06 02:10:37;;;;;;;11.13;7.27;;;;;;;19.29;100.00;100425.22;5052382;28;20396;-73
2021/07/06 02:13:08;;;;;;;10.40;6.77;;;;;;;19.29;100.00;100419.88;5048625;28;20458;-74
2021/07/06 02:15:34;;;;;;;11.67;8.00;;;;;;;19.31;100.00;100420.53;5047610;28;20404;-73
2021/07/06 02:17:59;;;;;;;10.00;6.97;;;;;;;19.31;100.00;100433.88;5048447;28;20841;-73
2021/07/06 02:20:25;;;;;;;9.10;6.90;;;;;;;19.29;100.00;100434.03;5054388;28;20173;-73
2021/07/06 02:22:52;;;;;;;10.97;6.70;;;;;;;19.33;100.00;100435.34;5051710;28;20172;-72
2021/07/06 02:25:19;;;;;;;12.60;7.23;;;;;;;19.32;100.00;100439.03;5049879;28;20173;-72
2021/07/06 02:27:47;;;;;;;10.20;6.80;;;;;;;19.31;100.00;100440.03;5050156;28;20396;-71
2021/07/06 02:30:15;;;;;;;10.23;6.60;;;;;;;19.32;100.00;100438.19;5050234;28;20432;-71
2021/07/06 02:32:41;;;;;;;12.10;7.13;;;;;;;19.33;100.00;100434.53;5050965;28;20531;-72
2021/07/06 02:35:08;;;;;;;20.40;8.13;;;;;;;19.37;100.00;100422.53;5049889;28;20415;-72
2021/07/06 02:37:35;;;;;;;12.33;7.70;;;;;;;19.38;100.00;100416.22;5050098;28;20161;-72
2021/07/06 02:40:04;;;;;;;12.03;6.63;;;;;;;19.37;100.00;100412.72;5049695;28;20462;-73
2021/07/06 02:42:29;;;;;;;10.83;6.90;;;;;;;19.37;100.00;100409.22;5052311;28;20503;-74
2021/07/06 02:44:55;;;;;;;13.10;7.50;;;;;;;19.37;100.00;100412.72;5054736;28;20415;-73
2021/07/06 02:47:20;;;;;;;11.83;7.10;;;;;;;19.41;100.00;100416.69;5049656;28;20249;-72
2021/07/06 02:49:46;;;;;;;11.00;6.90;;;;;;;19.43;100.00;100416.56;5049572;28;20173;-72
2021/07/06 02:52:13;;;;;;;8.60;6.30;;;;;;;19.46;100.00;100428.69;5049618;28;20671;-73
2021/07/06 02:54:38;;;;;;;9.83;7.37;;;;;;;19.51;100.00;100423.72;5049861;28;20171;-74
2021/07/06 02:57:08;;;;;;;11.73;6.70;;;;;;;19.60;100.00;100425.38;5053546;28;20796;-73
2021/07/06 02:59:33;;;;;;;9.57;6.53;;;;;;;19.60;100.00;100422.72;5054432;28;20165;-73
2021/07/06 03:01:59;;;;;;;10.80;6.93;;;;;;;19.65;100.00;100425.72;5051346;28;20408;-73
2021/07/06 03:04:24;;;;;;;11.73;7.40;;;;;;;19.68;100.00;100436.88;5053248;28;20248;-72
2021/07/06 03:06:50;;;;;;;12.57;7.17;;;;;;;19.78;100.00;100436.69;5049361;28;20175;-72
2021/07/06 03:09:15;;;;;;;10.00;7.43;;;;;;;19.89;100.00;100432.84;5050496;28;20165;-72
2021/07/06 03:11:42;;;;;;;9.93;6.53;;;;;;;19.99;100.00;100437.97;5049210;28;20189;-72
2021/07/06 03:14:08;;;;;;;10.30;7.47;;;;;;;20.05;100.00;100440.78;5052898;28;20234;-73
2021/07/06 03:16:33;;;;;;;9.30;5.43;;;;;;;20.17;100.00;100434.06;5049917;28;20411;-73
2021/07/06 03:18:59;;;;;;;9.07;5.87;;;;;;;20.22;100.00;100436.22;5053222;28;20251;-72
2021/07/06 03:21:24;;;;;;;11.50;7.43;;;;;;;20.27;100.00;100441.06;5049603;28;20639;-74
2021/07/06 03:23:50;;;;;;;12.10;7.80;;;;;;;20.39;100.00;100436.97;5048819;28;20149;-73
2021/07/06 03:26:15;;;;;;;9.93;6.53;;;;;;;20.39;100.00;100439.66;5048966;28;20636;-73
2021/07/06 03:28:41;;;;;;;11.83;6.80;;;;;;;20.42;100.00;100434.81;5034235;28;20516;-74
2021/07/06 03:31:07;;;;;;;10.33;6.80;;;;;;;20.45;100.00;100431.81;5049213;28;20228;-73
2021/07/06 03:33:32;;;;;;;7.80;5.23;;;;;;;20.55;100.00;100436.09;5049664;28;20411;-74
2021/07/06 03:35:58;;;;;;;11.07;6.17;;;;;;;20.51;100.00;100430.28;5049363;28;20628;-72
2021/07/06 03:38:23;;;;;;;9.67;5.63;;;;;;;20.63;100.00;100426.25;5051981;28;20266;-73
2021/07/06 03:40:49;;;;;;;9.10;5.93;;;;;;;20.66;100.00;100419.72;5052110;28;20181;-72
2021/07/06 03:43:14;;;;;;;10.80;6.93;;;;;;;20.67;100.00;100424.88;5053336;28;20197;-73
2021/07/06 03:45:40;;;;;;;9.10;6.33;;;;;;;20.66;100.00;100425.88;5049027;28;20548;-75
2021/07/06 03:48:05;;;;;;;10.27;6.80;;;;;;;20.71;100.00;100425.38;5049089;28;20180;-73
2021/07/06 03:50:31;;;;;;;8.73;6.50;;;;;;;20.76;100.00;100423.81;5048837;28;20530;-72
2021/07/06 03:52:58;;;;;;;10.47;6.67;;;;;;;20.77;100.00;100414.78;5052126;28;20197;-73
2021/07/06 03:55:27;;;;;;;9.30;6.50;;;;;;;20.75;100.00;100424.81;5050307;28;20176;-73
2021/07/06 03:57:54;;;;;;;7.63;5.43;;;;;;;20.74;100.00;100425.00;5052919;28;20435;-72
2021/07/06 04:00:22;;;;;;;9.37;6.50;;;;;;;20.74;100.00;100435.69;5048964;28;20779;-72
2021/07/06 04:02:47;;;;;;;10.47;6.87;;;;;;;20.71;100.00;100436.88;5048662;28;20442;-73
2021/07/06 04:05:14;;;;;;;10.60;6.40;;;;;;;20.70;100.00;100442.38;5049089;28;20423;-73
2021/07/06 04:07:41;;;;;;;8.53;6.03;;;;;;;20.63;100.00;100447.59;5052733;28;20173;-72
2021/07/06 04:10:08;;;;;;;11.03;6.80;;;;;;;20.62;100.00;100456.59;5049239;28;20408;-72
2021/07/06 04:12:38;;;;;;;8.90;6.00;;;;;;;20.61;100.00;100446.09;5050847;28;20459;-72
2021/07/06 04:15:09;;;;;;;8.97;5.97;;;;;;;20.59;100.00;100454.28;5059724;28;20406;-73
2021/07/06 04:17:34;;;;;;;9.20;5.50;;;;;;;20.54;100.00;100451.28;5054120;28;20776;-74
2021/07/06 04:20:00;;;;;;;11.60;7.20;;;;;;;20.39;100.00;100464.50;5058868;28;20960;-74
2021/07/06 04:22:25;;;;;;;9.90;6.23;;;;;;;20.37;100.00;100463.84;5070087;28;20625;-74
2021/07/06 04:24:51;;;;;;;10.27;6.53;;;;;;;20.32;100.00;100454.69;5069545;28;20164;-72
2021/07/06 04:27:16;;;;;;;10.00;6.40;;;;;;;20.32;100.00;100465.38;5066899;28;20168;-73
2021/07/06 04:29:42;;;;;;;8.90;6.80;;;;;;;20.29;100.00;100458.53;5068224;28;20672;-74
2021/07/06 04:32:07;;;;;;;13.43;7.90;;;;;;;20.29;100.00;100471.06;5065275;28;20585;-73
2021/07/06 04:34:33;;;;;;;10.60;6.40;;;;;;;20.41;100.00;100461.69;5064172;28;20214;-72
2021/07/06 04:36:58;;;;;;;12.03;6.67;;;;;;;20.47;100.00;100458.31;5067757;28;20161;-72
2021/07/06 04:39:24;;;;;;;11.73;7.17;;;;;;;20.48;100.00;100465.34;5064857;28;20160;-73
2021/07/06 04:41:49;;;;;;;10.33;6.40;;;;;;;20.54;100.00;100459.31;5071252;28;20203;-72
2021/07/06 04:44:15;;;;;;;12.47;7.07;;;;;;;20.61;100.00;100462.94;5073212;28;20625;-73
2021/07/06 04:46:41;;;;;;;10.43;6.80;;;;;;;20.73;100.00;100455.38;5072724;28;20176;-72
2021/07/06 04:49:07;;;;;;;12.93;6.60;;;;;;;20.84;100.00;100462.97;5071349;28;20168;-73
2021/07/06 04:51:34;;;;;;;10.80;7.00;;;;;;;20.85;100.00;100458.47;5073085;28;20454;-75
2021/07/06 04:54:00;;;;;;;12.83;6.73;;;;;;;20.91;100.00;100445.25;5070385;28;20190;-73
2021/07/06 04:56:27;;;;;;;10.73;6.60;;;;;;;20.96;100.00;100448.22;5071391;28;20636;-71
2021/07/06 04:58:52;;;;;;;9.13;6.97;;;;;;;21.12;100.00;100441.09;5068261;28;20885;-73
2021/07/06 05:01:18;;;;;;;8.37;5.60;;;;;;;21.15;100.00;100440.72;5059907;28;20480;-72
2021/07/06 05:03:43;;;;;;;6.97;5.37;;;;;;;21.27;100.00;100431.31;5066292;28;20176;-72
2021/07/06 05:06:11;;;;;;;7.70;5.27;;;;;;;21.42;100.00;100442.91;5070308;28;20504;-74
2021/07/06 05:08:38;;;;;;;9.27;5.60;;;;;;;21.54;100.00;100445.97;5071067;28;21127;-72
2021/07/06 05:11:03;;;;;;;7.47;5.20;;;;;;;21.60;100.00;100443.38;5072381;28;20445;-71
2021/07/06 05:13:29;;;;;;;8.87;6.70;;;;;;;21.66;100.00;100449.88;5071091;28;20407;-74
2021/07/06 05:15:54;;;;;;;7.47;5.77;;;;;;;21.73;100.00;100450.81;5058807;28;20160;-75
2021/07/06 05:18:20;;;;;;;9.40;5.77;;;;;;;21.80;100.00;100442.88;5061854;28;20175;-73
2021/07/06 05:20:46;;;;;;;8.63;6.30;;;;;;;21.85;100.00;100451.19;5072598;28;20195;-72
2021/07/06 05:23:11;;;;;;;7.03;5.37;;;;;;;21.89;100.00;100453.31;5071923;28;20211;-73
2021/07/06 05:25:37;;;;;;;8.90;5.80;;;;;;;21.97;100.00;100451.56;5072421;28;20174;-74
2021/07/06 05:28:02;;;;;;;10.90;6.60;;;;;;;22.00;100.00;100451.22;5072688;28;20168;-74
2021/07/06 05:30:28;;;;;;;8.67;6.50;;;;;;;22.00;100.00;100467.28;5071014;28;20266;-74
2021/07/06 05:32:53;;;;;;;9.30;5.73;;;;;;;21.89;100.00;100455.97;5070360;28;20590;-72
2021/07/06 05:35:19;;;;;;;11.30;7.03;;;;;;;21.85;100.00;100460.06;5063710;28;20545;-73
2021/07/06 05:37:45;;;;;;;8.70;6.00;;;;;;;21.75;100.00;100459.47;5072073;28;20536;-72
2021/07/06 05:40:11;;;;;;;9.50;6.90;;;;;;;21.81;100.00;100480.13;5070223;28;20200;-72
2021/07/06 05:42:38;;;;;;;15.27;7.50;;;;;;;21.87;100.00;100489.28;5071955;28;20176;-72
2021/07/06 05:45:07;;;;;;;14.60;8.60;;;;;;;21.94;100.00;100484.03;5069461;28;20889;-74
2021/07/06 05:47:36;;;;;;;9.10;7.43;;;;;;;21.98;100.00;100496.03;5062962;28;20916;-76
2021/07/06 05:50:07;;;;;;;12.20;8.20;;;;;;;21.94;100.00;100505.44;5067421;28;20446;-73
2021/07/06 05:52:33;;;;;;;12.20;8.70;;;;;;;22.03;100.00;100509.69;5070372;28;20488;-73
2021/07/06 05:55:00;;;;;;;12.20;7.37;;;;;;;22.02;100.00;100518.75;5071391;28;20455;-73
2021/07/06 05:57:31;;;;;;;10.53;8.03;;;;;;;22.01;100.00;100515.25;5070803;28;21007;-71
2021/07/06 06:00:03;;;;;;;10.10;7.40;;;;;;;21.96;100.00;100514.94;5071000;28;20430;-70
2021/07/06 06:02:29;;;;;;;13.23;7.97;;;;;;;21.98;100.00;100528.13;5068832;28;20924;-72
2021/07/06 06:04:55;;;;;;;11.40;7.60;;;;;;;22.07;100.00;100519.03;5071495;28;20479;-73
2021/07/06 06:07:23;;;;;;;9.07;7.20;;;;;;;22.16;100.00;100520.66;5071549;28;20165;-73
2021/07/06 06:09:49;;;;;;;14.40;9.27;;;;;;;22.10;100.00;100526.72;5071331;28;20406;-72
2021/07/06 06:12:14;;;;;;;10.17;7.57;;;;;;;22.12;100.00;100517.50;5071717;28;20967;-71
2021/07/06 06:14:40;;;;;;;12.10;7.43;;;;;;;22.25;100.00;100503.47;5071172;28;20415;-72
2021/07/06 06:17:06;;;;;;;12.93;7.80;;;;;;;22.33;100.00;100506.06;5071033;28;20168;-75
2021/07/06 06:19:32;;;;;;;10.30;7.07;;;;;;;22.41;100.00;100505.97;5070908;28;20640;-72
2021/07/06 06:21:58;;;;;;;9.40;7.13;;;;;;;22.60;100.00;100506.44;5070914;28;20196;-72
2021/07/06 06:24:23;;;;;;;18.07;8.60;;;;;;;22.83;100.00;100517.84;5069854;28;20998;-74
2021/07/06 06:26:49;;;;;;;10.10;7.43;;;;;;;22.93;100.00;100505.00;5068289;28;20243;-73
2021/07/06 06:29:16;;;;;;;13.10;7.53;;;;;;;23.11;100.00;100498.38;5062934;28;20611;-72
2021/07/06 06:31:42;;;;;;;9.63;7.13;;;;;;;23.19;100.00;100517.03;5069587;28;20555;-71
2021/07/06 06:34:07;;;;;;;11.90;7.40;;;;;;;23.33;100.00;100516.13;5070683;28;20506;-73
2021/07/06 06:36:33;;;;;;;8.20;5.93;;;;;;;23.31;100.00;100512.00;5070735;28;20160;-69
2021/07/06 06:39:00;;;;;;;11.90;7.27;;;;;;;23.36;100.00;100510.41;5070515;28;20192;-71
2021/07/06 06:41:26;;;;;;;8.67;6.43;;;;;;;23.54;100.00;100497.38;5070493;28;20200;-73
2021/07/06 06:43:53;;;;;;;9.60;6.97;;;;;;;23.53;100.00;100493.03;5070033;28;20449;-74
2021/07/06 06:46:20;;;;;;;9.60;7.07;;;;;;;23.52;100.00;100507.47;5070159;28;20168;-72
2021/07/06 06:48:45;;;;;;;9.87;6.43;;;;;;;23.51;100.00;100495.09;5065132;28;20411;-72
2021/07/06 06:51:11;;;;;;;8.90;6.77;;;;;;;23.43;100.00;100514.00;5061565;28;20442;-72
2021/07/06 06:53:37;;;;;;;8.23;5.83;;;;;;;23.46;100.00;100518.97;5069567;28;20180;-71
2021/07/06 06:56:03;;;;;;;8.57;5.30;;;;;;;23.37;100.00;100533.53;5070613;28;20501;-75
2021/07/06 06:58:28;;;;;;;7.60;5.03;;;;;;;23.41;100.00;100521.38;5070022;28;20172;-74
2021/07/06 07:00:54;;;;;;;6.97;4.30;;;;;;;23.36;100.00;100520.31;5069800;28;20172;-73
2021/07/06 07:03:21;;;;;;;6.00;4.20;;;;;;;23.38;100.00;100518.25;5070209;28;20241;-74
2021/07/06 07:05:46;;;;;;;7.50;4.87;;;;;;;23.39;100.00;100525.28;5072276;28;20222;-74
2021/07/06 07:08:16;;;;;;;9.73;5.27;;;;;;;23.43;100.00;100527.41;5067975;28;20411;-75
2021/07/06 07:10:42;;;;;;;11.13;5.27;;;;;;;23.52;100.00;100518.19;5061875;28;20433;-72
2021/07/06 07:13:08;;;;;;;5.83;4.13;;;;;;;23.48;100.00;100524.94;5069815;28;20465;-72
2021/07/06 07:15:34;;;;;;;7.60;4.70;;;;;;;23.54;100.00;100521.50;5068745;28;20413;-72
2021/07/06 07:18:00;;;;;;;7.27;5.00;;;;;;;23.56;100.00;100525.84;5067749;28;20191;-73
2021/07/06 07:20:26;;;;;;;9.23;4.63;;;;;;;23.66;100.00;100529.91;5068684;28;20955;-71
2021/07/06 07:22:51;;;;;;;11.10;5.73;;;;;;;23.62;100.00;100530.47;5064743;28;20419;-72
2021/07/06 07:25:17;;;;;;;9.87;5.27;;;;;;;23.65;100.00;100536.28;5062560;28;20243;-72
2021/07/06 07:27:43;;;;;;;7.80;5.30;;;;;;;23.63;100.00;100540.19;5065341;28;20530;-72
2021/07/06 07:30:11;;;;;;;7.63;5.07;;;;;;;23.39;100.00;100538.69;5060082;28;20168;-73
2021/07/06 07:32:38;;;;;;;10.60;5.67;;;;;;;23.53;100.00;100538.63;5068154;28;20539;-71
2021/07/06 07:35:05;;;;;;;11.80;6.13;;;;;;;23.72;100.00;100531.81;5068013;28;20407;-72
2021/07/06 07:37:30;;;;;;;7.03;5.23;;;;;;;23.68;100.00;100538.59;5068313;28;20521;-73
2021/07/06 07:39:56;;;;;;;7.83;5.20;;;;;;;23.63;100.00;100537.50;5069499;28;20493;-72
2021/07/06 07:42:21;;;;;;;10.90;6.10;;;;;;;23.73;100.00;100543.41;5069435;28;20243;-72
2021/07/06 07:44:47;;;;;;;9.33;6.43;;;;;;;23.95;100.00;100539.63;5069839;28;20194;-73
2021/07/06 07:47:13;;;;;;;9.00;6.60;;;;;;;24.03;100.00;100528.78;5069082;28;20163;-72
2021/07/06 07:49:39;;;;;;;9.97;6.60;;;;;;;24.08;100.00;100542.41;5034844;28;20421;-74
2021/07/06 07:52:04;;;;;;;10.30;6.33;;;;;;;24.40;100.00;100533.97;5067152;28;21105;-73
2021/07/06 07:54:30;;;;;;;10.63;6.50;;;;;;;24.68;100.00;100539.28;5065771;28;20648;-72
2021/07/06 07:56:56;;;;;;;9.63;6.60;;;;;;;24.68;100.00;100537.44;5048639;28;20172;-73
2021/07/06 07:59:21;;;;;;;7.80;5.80;;;;;;;24.78;100.00;100561.25;5069907;28;20642;-74
2021/07/06 08:01:47;;;;;;;10.60;7.03;;;;;;;24.85;100.00;100551.34;5069706;28;20433;-72
2021/07/06 08:04:12;;;;;;;9.23;7.30;;;;;;;24.87;100.00;100547.47;5070013;28;20164;-74
2021/07/06 08:06:39;;;;;;;9.40;7.60;;;;;;;25.01;100.00;100555.56;5068030;28;20263;-73
2021/07/06 08:09:05;;;;;;;8.30;6.20;;;;;;;24.94;100.00;100563.63;5064318;28;20181;-73
2021/07/06 08:11:31;;;;;;;8.30;6.30;;;;;;;24.86;100.00;100567.31;5051465;28;20959;-73
2021/07/06 08:13:56;;;;;;;8.73;6.70;;;;;;;24.59;100.00;100562.81;5070072;28;20468;-73
2021/07/06 08:16:22;;;;;;;9.90;6.90;;;;;;;24.38;100.00;100560.22;5073880;28;20164;-73
2021/07/06 08:18:47;;;;;;;10.10;7.20;;;;;;;24.34;100.00;100565.16;5069825;28;20195;-73
2021/07/06 08:21:13;;;;;;;9.07;6.10;;;;;;;24.19;100.00;100569.78;5073123;28;20199;-72
2021/07/06 08:23:39;;;;;;;12.17;6.80;;;;;;;24.26;100.00;100565.28;5069422;28;20199;-73
2021/07/06 08:26:04;;;;;;;9.90;7.83;;;;;;;24.29;100.00;100568.38;5071718;28;20259;-79
2021/07/06 08:28:30;;;;;;;10.10;5.77;;;;;;;24.33;100.00;100571.53;5073404;28;20160;-73
2021/07/06 08:30:56;;;;;;;10.10;6.40;;;;;;;24.33;100.00;100568.84;5072295;28;20165;-73
2021/07/06 08:33:21;;;;;;;10.07;6.30;;;;;;;24.23;100.00;100562.97;5072277;28;20573;-73
2021/07/06 08:35:47;;;;;;;8.83;6.60;;;;;;;24.14;100.00;100562.28;5063311;28;20572;-72
2021/07/06 08:38:13;;;;;;;10.50;7.20;;;;;;;24.02;100.00;100553.94;5066279;28;20164;-74
2021/07/06 08:40:49;;;;;;;9.20;6.33;;;;;;;24.02;100.00;100553.09;5072610;28;20251;-74
2021/07/06 08:43:15;;;;;;;10.80;6.27;;;;;;;23.99;100.00;100561.56;5054426;28;20426;-73
2021/07/06 08:45:42;;;;;;;7.93;6.40;;;;;;;23.95;100.00;100568.31;5061953;28;20425;-75
2021/07/06 08:48:10;;;;;;;9.87;7.00;;;;;;;24.02;100.00;100566.53;5072101;28;20418;-72
2021/07/06 08:50:36;;;;;;;8.20;5.50;;;;;;;24.17;100.00;100575.31;5071147;28;20492;-71
2021/07/06 08:53:02;;;;;;;7.70;5.20;;;;;;;23.95;100.00;100566.47;5072643;28;20468;-73
2021/07/06 08:55:28;;;;;;;8.20;5.00;;;;;;;23.78;100.00;100559.72;5072528;28;20410;-75
2021/07/06 08:57:54;;;;;;;9.00;5.77;;;;;;;23.62;100.00;100568.88;5073036;28;20164;-75
2021/07/06 09:00:21;;;;;;;7.23;4.80;;;;;;;23.67;100.00;100573.66;5072932;28;20247;-74
2021/07/06 09:03:09;;;;;;;7.60;5.17;;;;;;;23.88;100.00;100567.44;5072341;28;20174;-74
2021/07/06 09:05:35;;;;;;;8.40;5.23;;;;;;;23.93;100.00;100571.22;5059711;28;20419;-73
2021/07/06 09:08:00;;;;;;;9.50;5.60;;;;;;;23.66;100.00;100569.34;5071381;28;20421;-71
2021/07/06 09:10:33;;;;;;;8.30;5.30;;;;;;;23.80;100.00;100581.81;5071848;28;20164;-74
2021/07/06 09:12:59;;;;;;;8.43;5.70;;;;;;;23.98;100.00;100576.84;5061893;28;20583;-72
2021/07/06 09:15:32;;;;;;;9.20;6.10;;;;;;;24.06;100.00;100578.56;5072983;28;20498;-73
2021/07/06 09:18:06;;;;;;;11.40;6.47;;;;;;;24.15;100.00;100576.53;5069138;28;20546;-73
2021/07/06 09:20:32;;;;;;;9.70;6.47;;;;;;;24.28;100.00;100576.66;5072280;28;20414;-71
2021/07/06 09:23:18;;;;;;;11.90;7.33;;;;;;;24.56;100.00;100582.00;5071873;28;20916;-74
2021/07/06 09:25:43;;;;;;;11.10;7.30;;;;;;;24.51;100.00;100582.63;5072459;28;20415;-74
2021/07/06 09:28:23;;;;;;;11.00;7.30;;;;;;;24.55;100.00;100575.81;5054463;28;20407;-74
2021/07/06 09:30:49;;;;;;;12.03;8.47;;;;;;;24.66;100.00;100578.97;5070022;28;20188;-72
2021/07/06 09:33:28;;;;;;;10.47;8.63;;;;;;;24.71;100.00;100580.06;5071871;28;20489;-71
2021/07/06 09:35:55;;;;;;;11.90;8.70;;;;;;;24.93;100.00;100578.06;5068537;28;20195;-73
2021/07/06 09:38:21;;;;;;;9.67;8.50;;;;;;;24.97;100.00;100582.03;5065961;28;20963;-72
2021/07/06 09:40:47;;;;;;;10.37;9.27;;;;;;;24.94;100.00;100585.13;5071009;28;20446;-75
2021/07/06 09:43:13;;;;;;;12.13;9.90;;;;;;;24.99;100.00;100596.09;5070329;28;20548;-72
2021/07/06 09:45:46;;;;;;;11.30;8.90;;;;;;;25.18;100.00;100594.56;5072358;28;20446;-74
2021/07/06 09:48:12;;;;;;;11.80;9.17;;;;;;;25.08;100.00;100599.47;5069655;28;20597;-73
2021/07/06 09:50:37;;;;;;;12.83;9.37;;;;;;;24.97;100.00;100597.34;5071618;28;20434;-74
2021/07/06 09:53:03;;;;;;;12.70;9.47;;;;;;;25.05;100.00;100610.63;5060955;28;20269;-72
2021/07/06 09:55:30;;;;;;;12.10;9.60;;;;;;;25.14;100.00;100614.81;5071372;28;20165;-74
2021/07/06 09:57:57;;;;;;;18.60;10.87;;;;;;;25.27;100.00;100606.78;5071606;28;20598;-72
2021/07/06 10:00:26;;;;;;;11.87;9.30;;;;;;;25.20;100.00;100605.09;5072151;28;20458;-72
2021/07/06 10:03:00;;;;;;;12.00;9.93;;;;;;;25.37;100.00;100606.41;5070755;28;20926;-75
2021/07/06 10:05:28;;;;;;;12.57;9.17;;;;;;;25.40;100.00;100604.16;5070772;28;20497;-73
2021/07/06 10:07:54;;;;;;;11.63;10.30;;;;;;;25.47;100.00;100617.63;5070730;28;20418;-74
2021/07/06 10:10:21;;;;;;;11.20;9.43;;;;;;;25.45;100.00;100615.13;5059005;28;20783;-76
2021/07/06 10:12:49;;;;;;;13.07;9.70;;;;;;;25.32;100.00;100616.97;5052218;28;21165;-70
2021/07/06 10:15:20;;;;;;;15.50;9.70;;;;;;;25.45;100.00;100612.41;5040510;28;20566;-72
2021/07/06 10:17:46;;;;;;;13.27;10.13;;;;;;;25.48;100.00;100621.16;5065867;28;20413;-73
2021/07/06 10:20:15;;;;;;;12.03;9.83;;;;;;;25.48;100.00;100623.84;5071424;28;20410;-74
2021/07/06 10:22:41;;;;;;;10.30;9.20;;;;;;;25.65;100.00;100617.03;5069693;28;20487;-75
2021/07/06 10:25:10;;;;;;;12.13;8.30;;;;;;;25.62;100.00;100629.06;5063084;28;20931;-74
2021/07/06 10:27:40;;;;;;;13.87;7.80;;;;;;;25.51;100.00;100632.31;5069724;28;20508;-71
2021/07/06 10:30:16;;;;;;;11.20;8.50;;;;;;;25.77;100.00;100634.28;5071396;28;20460;-75
2021/07/06 10:32:43;;;;;;;11.20;8.50;;;;;;;25.86;100.00;100626.84;5070841;28;20811;-76
2021/07/06 10:35:14;;;;;;;12.70;7.53;;;;;;;25.96;100.00;100622.69;5066249;28;20522;-73
2021/07/06 10:37:40;;;;;;;11.30;9.00;;;;;;;26.10;100.00;100620.84;5063521;28;20411;-72
2021/07/06 10:40:15;;;;;;;10.80;8.77;;;;;;;26.28;100.00;100618.34;5068723;28;20414;-74
2021/07/06 10:42:41;;;;;;;9.50;7.93;;;;;;;26.45;100.00;100617.94;5061593;28;20415;-73
2021/07/06 10:45:24;;;;;;;11.00;8.27;;;;;;;26.75;100.00;100619.16;5067653;28;20531;-72
2021/07/06 10:47:53;;;;;;;12.03;8.73;;;;;;;27.05;100.00;100613.25;5071287;28;20425;-72
2021/07/06 10:50:43;;;;;;;10.83;8.63;;;;;;;27.26;100.00;100614.81;5070889;28;20410;-74
2021/07/06 10:53:23;;;;;;;11.17;8.80;;;;;;;27.31;100.00;100615.84;5070362;28;20466;-75
2021/07/06 10:56:08;;;;;;;12.70;8.47;;;;;;;27.51;100.00;100618.44;5067471;28;20427;-74
2021/07/06 10:58:50;;;;;;;10.83;8.70;;;;;;;27.59;100.00;100622.75;5064009;28;20410;-73
2021/07/06 11:01:47;;;;;;;10.23;8.30;;;;;;;27.78;100.00;100627.22;5064254;28;20487;-75
2021/07/06 11:04:43;;;;;;;12.60;8.90;;;;;;;27.71;100.00;100631.84;5066567;28;20441;-75
2021/07/06 11:07:14;;;;;;;17.17;9.17;;;;;;;27.57;100.00;100632.91;5059568;28;20407;-74
2021/07/06 11:09:39;;;;;;;11.07;9.00;;;;;;;27.33;100.00;100640.72;5067826;28;20839;-74
2021/07/06 11:12:29;;;;;;;13.20;9.10;;;;;;;27.24;100.00;100636.63;5059233;28;20458;-79